Airfield :
LOGIN :

Register | Disclaimer

   EN    FR    IT 

 










Legend :    VFR   Marginal VFR   IFR   Intensive IFR   Very Intensive IFR
Visi :
Ceiling :
>= 8 km
>= 3000ft
5 to 8 km
1000 to 3000 ft
1500m to 5 km
500 to 1000 ft
800 to 1500m
200 to 500 ft
< 800m
< 200 ft
Symbols :   Thunderstorms  Fog  Heavy snow  Heavy precipitations  Wind > 20 kt
SIGMETs :     Misc.  Thunderstorms  Icing  Turbulence  Mountain Waves  Volcanic Ashes






- Airport Elevation : 219 ft
- IATA code : DNR


LFRD - Dinard

CURRENT METAR :
  • 291930Z AUTO 18007KT CAVOK 06/05 Q1015 NOSIG

EXPIRED METARs :
  • 291900Z AUTO 19007KT 9999 FEW036 06/05 Q1015 NOSIG
  • 291830Z AUTO 18006KT 9999 FEW035 07/05 Q1015 NOSIG
  • 291800Z AUTO 19007KT CAVOK 07/05 Q1015 NOSIG
  • 291730Z AUTO 19006KT 9999 FEW039 07/05 Q1015 NOSIG
  • 291700Z AUTO 20005KT 9999 FEW044 08/05 Q1015 NOSIG

TAF TAF LFRD
Valid from the 29 at 18:00 until the 30 at 18:00 UTC


291700Z 2918/3018 17010KT 9999 BKN030
BECMG 2923/3001 BKN013
TEMPO 3001/3005 4000 DZ BKN005
BECMG 3003/3005 4500 RA
TEMPO 3005/3008 17015G25KT 3000 RADZ BKN005
BECMG 3008/3010 23012KT 6000 NSW OVC010
TEMPO 3010/3014 23015G25KT
TEMPO 3010/3018 2500 DZ BR OVC003
ATIS : +33 2 99 16 81 50



MET'MAP, your aeronautical weather chart ! - Copyright ORBIFLY December 2007 - Disclaimer

ORBIFLY MET'MAP TEAM :

Programming & Development : Alexandra Zaïnal
Concept & original design : Baudouin d'Aumeries
Assistance for programming : Marc-Olivier Méhu
Technical & hardware support : Manuel Goepfert

Contact : metmap@orbifly.com




SOURCES & CREDITS :

   NOAA